Time;durP1;ratioP1;P1;durP2;ratioP2;P2;SDS_P1;SDS_P2;PMS_P1;PMS_P2;Temp;Humidity;BMP_temperature;BMP_pressure;BME280_temperature;BME280_humidity;BME280_pressure;Samples;Min_cycle;Max_cycle;Signal;HPM_P1;HPM_P2
2022/10/10 00:01:43;;;;;;;;;;;;;;;;;;10386839;28;20432;-62
2022/10/10 00:06:45;;;;;;;;;;;;;;;;;;10380939;28;19926;-62
2022/10/10 00:11:47;;;;;;;;;;;;;;;;;;10378722;28;20445;-62
2022/10/10 00:16:49;;;;;;;;;;;;;;;;;;10379744;28;19956;-63
2022/10/10 00:21:51;;;;;;;;;;;;;;;;;;10379193;28;20415;-63
2022/10/10 00:26:53;;;;;;;;;;;;;;;;;;10378805;28;19929;-63
2022/10/10 00:31:55;;;;;;;;;;;;;;;;;;10379419;28;19926;-63
2022/10/10 00:36:58;;;;;;;;;;;;;;;;;;10377698;28;20376;-61
2022/10/10 00:42:00;;;;;;;;;;;;;;;;;;10379644;28;19925;-62
2022/10/10 00:47:02;;;;;;;;;;;;;;;;;;10376437;28;19988;-62
2022/10/10 00:52:04;;;;;;;;;;;;;;;;;;10379275;28;19926;-63
2022/10/10 00:57:06;;;;;;;;;;;;;;;;;;10376851;28;19925;-62
2022/10/10 01:02:08;;;;;;;;;;;;;;;;;;10377289;28;19930;-62
2022/10/10 01:07:10;;;;;;;;;;;;;;;;;;10379248;28;19976;-62
2022/10/10 01:12:12;;;;;;;;;;;;;;;;;;10377265;28;19925;-62
2022/10/10 01:17:14;;;;;;;;;;;;;;;;;;10376360;28;19926;-62
2022/10/10 01:22:16;;;;;;;;;;;;;;;;;;10378141;28;19929;-62
2022/10/10 01:27:18;;;;;;;;;;;;;;;;;;10377226;28;19934;-62
2022/10/10 01:32:20;;;;;;;;;;;;;;;;;;10375495;28;20327;-62
2022/10/10 01:37:22;;;;;;;;;;;;;;;;;;10376082;28;19934;-62
2022/10/10 01:42:24;;;;;;;;;;;;;;;;;;10376765;28;19925;-62
2022/10/10 01:47:26;;;;;;;;;;;;;;;;;;10375997;28;19925;-62
2022/10/10 01:52:28;;;;;;;;;;;;;;;;;;10375570;28;19956;-62
2022/10/10 01:57:30;;;;;;;;;;;;;;;;;;10375127;28;19925;-63
2022/10/10 02:02:32;;;;;;;;;;;;;;;;;;10374283;28;19926;-62
2022/10/10 02:07:34;;;;;;;;;;;;;;;;;;10375800;28;20320;-63
2022/10/10 02:12:36;;;;;;;;;;;;;;;;;;10376299;28;19956;-62
2022/10/10 02:17:38;;;;;;;;;;;;;;;;;;10374618;28;19957;-62
2022/10/10 02:22:40;;;;;;;;;;;;;;;;;;10374403;28;19926;-62
2022/10/10 02:27:42;;;;;;;;;;;;;;;;;;10375471;28;19929;-63
2022/10/10 02:32:44;;;;;;;;;;;;;;;;;;10375092;28;19925;-62
2022/10/10 02:37:46;;;;;;;;;;;;;;;;;;10372494;28;20328;-62
2022/10/10 02:42:49;;;;;;;;;;;;;;;;;;10375414;28;19929;-62
2022/10/10 02:47:51;;;;;;;;;;;;;;;;;;10374775;28;19933;-61
2022/10/10 02:52:53;;;;;;;;;;;;;;;;;;10373827;28;19925;-62
2022/10/10 02:57:55;;;;;;;;;;;;;;;;;;10373265;28;19972;-62
2022/10/10 03:02:57;;;;;;;;;;;;;;;;;;10374255;28;19972;-62
2022/10/10 03:07:59;;;;;;;;;;;;;;;;;;10374217;28;20332;-62
2022/10/10 03:13:01;;;;;;;;;;;;;;;;;;10373561;28;19992;-62
2022/10/10 03:18:03;;;;;;;;;;;;;;;;;;10373300;28;19933;-62
2022/10/10 03:23:05;;;;;;;;;;;;;;;;;;10374694;28;19926;-62
2022/10/10 03:28:07;;;;;;;;;;;;;;;;;;10373566;28;19926;-63
2022/10/10 03:33:10;;;;;;;;;;;;;;;;;;10372731;28;19933;-62
2022/10/10 03:38:12;;;;;;;;;;;;;;;;;;10372523;28;19932;-62
2022/10/10 03:43:14;;;;;;;;;;;;;;;;;;10381386;28;19930;-63
2022/10/10 03:48:16;;;;;;;;;;;;;;;;;;10380583;28;19929;-63
2022/10/10 03:53:18;;;;;;;;;;;;;;;;;;10380256;28;19925;-62
2022/10/10 03:58:20;;;;;;;;;;;;;;;;;;10380124;28;20352;-62
2022/10/10 04:03:24;;;;;;;;;;;;;;;;;;10380416;28;19931;-63
2022/10/10 04:08:28;;;;;;;;;;;;;;;;;;10380926;28;19926;-62
2022/10/10 04:13:30;;;;;;;;;;;;;;;;;;10380132;28;19948;-62
2022/10/10 04:18:32;;;;;;;;;;;;;;;;;;10379852;28;19926;-62
2022/10/10 04:23:34;;;;;;;;;;;;;;;;;;10379615;28;19925;-62
2022/10/10 04:28:36;;;;;;;;;;;;;;;;;;10378393;28;19979;-62
2022/10/10 04:33:39;;;;;;;;;;;;;;;;;;10380120;28;19929;-62
2022/10/10 04:38:41;;;;;;;;;;;;;;;;;;10378551;28;19926;-62
2022/10/10 04:43:43;;;;;;;;;;;;;;;;;;10378891;28;19925;-62
2022/10/10 04:48:45;;;;;;;;;;;;;;;;;;10378679;28;19925;-62
2022/10/10 04:53:47;;;;;;;;;;;;;;;;;;10377250;28;19932;-61
2022/10/10 04:58:51;;;;;;;;;;;;;;;;;;10377485;28;19925;-62
2022/10/10 05:03:53;;;;;;;;;;;;;;;;;;10377638;28;19925;-62
2022/10/10 05:08:55;;;;;;;;;;;;;;;;;;10378603;28;19925;-62
2022/10/10 05:13:57;;;;;;;;;;;;;;;;;;10377836;28;19930;-62
2022/10/10 05:19:00;;;;;;;;;;;;;;;;;;10376497;28;19925;-62
2022/10/10 05:24:02;;;;;;;;;;;;;;;;;;10377335;28;19925;-62
2022/10/10 05:29:05;;;;;;;;;;;;;;;;;;10376086;28;19956;-62
2022/10/10 05:34:07;;;;;;;;;;;;;;;;;;10375841;28;20369;-62
2022/10/10 05:39:09;;;;;;;;;;;;;;;;;;10375178;28;19929;-62
2022/10/10 05:44:11;;;;;;;;;;;;;;;;;;10376751;28;19925;-62
2022/10/10 05:49:13;;;;;;;;;;;;;;;;;;10376476;28;19926;-62
2022/10/10 05:54:15;;;;;;;;;;;;;;;;;;10373762;28;19930;-62
2022/10/10 05:59:17;;;;;;;;;;;;;;;;;;10376120;28;19956;-62
2022/10/10 06:04:19;;;;;;;;;;;;;;;;;;10375989;28;19929;-62
2022/10/10 06:09:21;;;;;;;;;;;;;;;;;;10375819;28;20273;-62
2022/10/10 06:14:23;;;;;;;;;;;;;;;;;;10373607;28;19972;-62
2022/10/10 06:19:25;;;;;;;;;;;;;;;;;;10374762;28;19925;-62
2022/10/10 06:24:28;;;;;;;;;;;;;;;;;;10375353;28;19926;-62
2022/10/10 06:29:30;;;;;;;;;;;;;;;;;;10375800;28;19925;-62
2022/10/10 06:34:32;;;;;;;;;;;;;;;;;;10374067;28;19964;-62
2022/10/10 06:39:34;;;;;;;;;;;;;;;;;;10369419;28;19983;-62
2022/10/10 06:44:36;;;;;;;;;;;;;;;;;;10373597;28;19926;-62
2022/10/10 06:49:38;;;;;;;;;;;;;;;;;;10388281;28;20339;-62
2022/10/10 06:54:41;;;;;;;;;;;;;;;;;;10408251;28;19926;-62
2022/10/10 06:59:43;;;;;;;;;;;;;;;;;;10375013;28;19926;-62
2022/10/10 07:04:45;;;;;;;;;;;;;;;;;;10374426;28;20328;-62
2022/10/10 07:09:47;;;;;;;;;;;;;;;;;;10381375;28;20003;-62
2022/10/10 07:14:49;;;;;;;;;;;;;;;;;;10375337;28;19929;-62
2022/10/10 07:19:51;;;;;;;;;;;;;;;;;;10378453;28;19932;-62
2022/10/10 07:24:53;;;;;;;;;;;;;;;;;;10379207;28;19925;-62
2022/10/10 07:29:55;;;;;;;;;;;;;;;;;;10372485;28;20377;-62
2022/10/10 07:34:57;;;;;;;;;;;;;;;;;;10388809;28;20359;-62
2022/10/10 07:40:00;;;;;;;;;;;;;;;;;;10370510;28;19984;-62
2022/10/10 07:45:02;;;;;;;;;;;;;;;;;;10345612;28;20016;-62
2022/10/10 07:50:05;;;;;;;;;;;;;;;;;;10378341;28;20040;-62
2022/10/10 07:55:07;;;;;;;;;;;;;;;;;;10381553;28;19972;-62
2022/10/10 08:00:09;;;;;;;;;;;;;;;;;;10381360;28;19925;-62
2022/10/10 08:05:11;;;;;;;;;;;;;;;;;;10380563;28;19926;-62
2022/10/10 08:10:14;;;;;;;;;;;;;;;;;;10379971;28;19992;-62
2022/10/10 08:15:16;;;;;;;;;;;;;;;;;;10380274;28;19984;-62
2022/10/10 08:20:18;;;;;;;;;;;;;;;;;;10380669;28;19971;-62
2022/10/10 08:25:20;;;;;;;;;;;;;;;;;;10379055;28;20392;-62
2022/10/10 08:30:22;;;;;;;;;;;;;;;;;;10380249;28;19933;-62
2022/10/10 08:35:24;;;;;;;;;;;;;;;;;;10380093;28;19932;-62
2022/10/10 08:40:27;;;;;;;;;;;;;;;;;;10379805;28;19980;-62
2022/10/10 08:45:29;;;;;;;;;;;;;;;;;;10378596;28;19929;-63
2022/10/10 08:50:31;;;;;;;;;;;;;;;;;;10379458;28;19979;-63
2022/10/10 08:55:33;;;;;;;;;;;;;;;;;;10379214;28;19925;-63
2022/10/10 09:00:36;;;;;;;;;;;;;;;;;;10396198;22;20945;-64
2022/10/10 09:05:38;;;;;;;;;;;;;;;;;;10499627;28;19935;-64
2022/10/10 09:10:40;;;;;;;;;;;;;;;;;;10499637;28;19924;-64
2022/10/10 09:15:44;;;;;;;;;;;;;;;;;;10501120;28;20500;-64
2022/10/10 09:20:46;;;;;;;;;;;;;;;;;;10501822;28;19974;-64
2022/10/10 09:25:48;;;;;;;;;;;;;;;;;;10500880;28;19925;-65
2022/10/10 09:30:50;;;;;;;;;;;;;;;;;;10501356;28;19925;-65
2022/10/10 09:35:52;;;;;;;;;;;;;;;;;;10499643;28;19978;-65
2022/10/10 09:40:54;;;;;;;;;;;;;;;;;;10500078;28;20432;-64
2022/10/10 09:45:57;;;;;;;;;;;;;;;;;;10500790;28;19928;-64
2022/10/10 09:50:59;;;;;;;;;;;;;;;;;;10500182;28;19925;-64
2022/10/10 09:56:01;;;;;;;;;;;;;;;;;;10500246;28;19970;-64
2022/10/10 10:01:03;;;;;;;;;;;;;;;;;;10499914;28;19925;-64
2022/10/10 10:06:05;;;;;;;;;;;;;;;;;;10482286;28;19924;-65
2022/10/10 10:11:07;;;;;;;;;;;;;;;;;;10499735;28;19975;-65
2022/10/10 10:16:10;;;;;;;;;;;;;;;;;;10499034;28;20383;-65
2022/10/10 10:21:12;;;;;;;;;;;;;;;;;;10494787;28;19929;-65
2022/10/10 10:26:14;;;;;;;;;;;;;;;;;;10457192;28;19924;-65
2022/10/10 10:31:16;;;;;;;;;;;;;;;;;;10455203;28;20299;-65
2022/10/10 10:36:18;;;;;;;;;;;;;;;;;;10453718;28;19995;-65
2022/10/10 10:41:20;;;;;;;;;;;;;;;;;;10456737;28;20280;-65
2022/10/10 10:46:22;;;;;;;;;;;;;;;;;;10457440;28;19979;-65
2022/10/10 10:51:24;;;;;;;;;;;;;;;;;;10454583;28;19925;-64
2022/10/10 10:56:26;;;;;;;;;;;;;;;;;;10458989;28;20325;-64
2022/10/10 11:01:28;;;;;;;;;;;;;;;;;;10456838;28;19966;-64
2022/10/10 11:06:50;;;;;;;;;;;;;;;;;;10456910;28;20011;-64
2022/10/10 11:12:12;;;;;;;;;;;;;;;;;;10456362;28;19972;-64
2022/10/10 11:17:14;;;;;;;;;;;;;;;;;;10456246;28;19928;-64
2022/10/10 11:22:16;;;;;;;;;;;;;;;;;;10456762;28;19975;-64
2022/10/10 11:27:18;;;;;;;;;;;;;;;;;;10455905;28;20272;-64
2022/10/10 11:32:20;;;;;;;;;;;;;;;;;;10438839;28;19979;-64
2022/10/10 11:37:22;;;;;;;;;;;;;;;;;;10456318;28;20380;-64
2022/10/10 11:42:25;;;;;;;;;;;;;;;;;;10456332;28;19925;-64
2022/10/10 11:47:27;;;;;;;;;;;;;;;;;;10456136;28;19976;-64
2022/10/10 11:52:30;;;;;;;;;;;;;;;;;;10456110;28;19936;-65
2022/10/10 11:57:36;;;;;;;;;;;;;;;;;;10456000;28;19932;-65
2022/10/10 12:02:42;;;;;;;;;;;;;;;;;;10460786;28;19994;-65
2022/10/10 12:07:44;;;;;;;;;;;;;;;;;;10463274;28;19932;-65
2022/10/10 12:12:46;;;;;;;;;;;;;;;;;;10445473;28;19925;-65
2022/10/10 12:17:48;;;;;;;;;;;;;;;;;;10462216;28;19973;-65
2022/10/10 12:22:50;;;;;;;;;;;;;;;;;;10462651;28;19925;-65
2022/10/10 12:27:55;;;;;;;;;;;;;;;;;;10462487;28;19979;-65
2022/10/10 12:32:57;;;;;;;;;;;;;;;;;;10462357;28;19975;-65
2022/10/10 12:37:59;;;;;;;;;;;;;;;;;;10461541;28;20277;-65
2022/10/10 12:43:01;;;;;;;;;;;;;;;;;;10461229;28;20328;-65
2022/10/10 12:48:03;;;;;;;;;;;;;;;;;;10461683;28;19975;-65
2022/10/10 12:53:07;;;;;;;;;;;;;;;;;;10460983;28;20330;-65
2022/10/10 12:58:09;;;;;;;;;;;;;;;;;;10494694;28;19929;-63
2022/10/10 13:03:25;;;;;;;;;;;;;;;;;;10502173;28;19947;-63
2022/10/10 13:08:27;;;;;;;;;;;;;;;;;;10502286;28;19970;-63
2022/10/10 13:13:29;;;;;;;;;;;;;;;;;;10501521;28;20338;-64
2022/10/10 13:18:31;;;;;;;;;;;;;;;;;;10479471;28;19987;-63
2022/10/10 13:23:33;;;;;;;;;;;;;;;;;;10459611;28;19929;-63
2022/10/10 13:28:35;;;;;;;;;;;;;;;;;;10456403;28;19972;-63
2022/10/10 13:33:38;;;;;;;;;;;;;;;;;;10459406;28;19932;-63
2022/10/10 13:38:40;;;;;;;;;;;;;;;;;;10459197;28;19955;-63
2022/10/10 13:43:42;;;;;;;;;;;;;;;;;;10458483;28;19994;-63
2022/10/10 13:48:44;;;;;;;;;;;;;;;;;;10458081;28;20450;-63
2022/10/10 13:53:47;;;;;;;;;;;;;;;;;;10453952;28;20007;-63
2022/10/10 13:58:49;;;;;;;;;;;;;;;;;;10453602;28;20327;-63
2022/10/10 14:03:51;;;;;;;;;;;;;;;;;;10458280;28;19928;-63
2022/10/10 14:08:53;;;;;;;;;;;;;;;;;;10452711;28;19929;-63
2022/10/10 14:13:55;;;;;;;;;;;;;;;;;;10455647;28;19929;-63
2022/10/10 14:18:57;;;;;;;;;;;;;;;;;;10454902;28;19951;-63
2022/10/10 14:23:59;;;;;;;;;;;;;;;;;;10451526;28;19979;-63
2022/10/10 14:29:01;;;;;;;;;;;;;;;;;;10454267;28;20375;-65
2022/10/10 14:34:03;;;;;;;;;;;;;;;;;;10455227;28;19979;-65
2022/10/10 14:39:05;;;;;;;;;;;;;;;;;;10448699;28;20367;-65
2022/10/10 14:44:07;;;;;;;;;;;;;;;;;;10457619;28;19933;-65
2022/10/10 14:49:09;;;;;;;;;;;;;;;;;;10454631;28;19929;-65
2022/10/10 14:54:14;;;;;;;;;;;;;;;;;;10456695;28;20331;-65
2022/10/10 14:59:16;;;;;;;;;;;;;;;;;;10457229;28;19979;-65
2022/10/10 15:04:18;;;;;;;;;;;;;;;;;;10455674;28;19929;-64
2022/10/10 15:09:20;;;;;;;;;;;;;;;;;;10454856;28;19929;-64
2022/10/10 15:14:41;;;;;;;;;;;;;;;;;;10456337;28;19929;-63
2022/10/10 15:19:43;;;;;;;;;;;;;;;;;;10453692;28;19979;-64
2022/10/10 15:24:45;;;;;;;;;;;;;;;;;;10455974;28;19924;-63
2022/10/10 15:29:47;;;;;;;;;;;;;;;;;;10453700;28;20292;-63
2022/10/10 15:34:49;;;;;;;;;;;;;;;;;;10458038;28;19925;-63
2022/10/10 15:39:51;;;;;;;;;;;;;;;;;;10460971;28;20379;-64
2022/10/10 15:44:53;;;;;;;;;;;;;;;;;;10462421;28;19932;-64
2022/10/10 15:49:55;;;;;;;;;;;;;;;;;;10463396;28;20336;-64
2022/10/10 15:54:57;;;;;;;;;;;;;;;;;;10463873;28;19932;-63
2022/10/10 15:59:59;;;;;;;;;;;;;;;;;;10462892;28;19983;-63
2022/10/10 16:05:02;;;;;;;;;;;;;;;;;;10460904;28;19925;-64
2022/10/10 16:10:04;;;;;;;;;;;;;;;;;;10443595;28;19979;-63
2022/10/10 16:15:07;;;;;;;;;;;;;;;;;;10462496;28;19972;-64
2022/10/10 16:20:09;;;;;;;;;;;;;;;;;;10460027;28;19931;-64
2022/10/10 16:25:11;;;;;;;;;;;;;;;;;;10462456;28;19929;-64
2022/10/10 16:30:28;;;;;;;;;;;;;;;;;;10461750;28;19925;-64
2022/10/10 16:35:30;;;;;;;;;;;;;;;;;;10462388;28;19925;-64
2022/10/10 16:40:32;;;;;;;;;;;;;;;;;;10440681;28;19971;-64
2022/10/10 16:45:35;;;;;;;;;;;;;;;;;;10460029;28;20380;-64
2022/10/10 16:50:37;;;;;;;;;;;;;;;;;;10461606;28;19925;-64
2022/10/10 16:55:39;;;;;;;;;;;;;;;;;;10460967;28;20430;-64
2022/10/10 17:00:41;;;;;;;;;;;;;;;;;;10457108;28;19933;-62
2022/10/10 17:05:44;;;;;;;;;;;;;;;;;;10458655;28;19924;-61
2022/10/10 17:10:46;;;;;;;;;;;;;;;;;;10460925;28;19925;-64
2022/10/10 17:15:48;;;;;;;;;;;;;;;;;;10460106;28;20364;-64
2022/10/10 17:20:50;;;;;;;;;;;;;;;;;;10458545;28;19933;-64
2022/10/10 17:25:52;;;;;;;;;;;;;;;;;;10460298;28;19925;-64
2022/10/10 17:30:54;;;;;;;;;;;;;;;;;;10459341;28;20323;-64
2022/10/10 17:35:56;;;;;;;;;;;;;;;;;;10457873;28;19972;-64
2022/10/10 17:40:58;;;;;;;;;;;;;;;;;;10473548;28;20265;-64
2022/10/10 17:46:01;;;;;;;;;;;;;;;;;;10460475;28;19979;-64
2022/10/10 17:51:23;;;;;;;;;;;;;;;;;;10458776;28;20011;-64
2022/10/10 17:56:25;;;;;;;;;;;;;;;;;;10456627;28;19924;-64
2022/10/10 18:01:29;;;;;;;;;;;;;;;;;;10456454;28;19928;-64
2022/10/10 18:06:33;;;;;;;;;;;;;;;;;;10458321;28;20423;-64
2022/10/10 18:11:35;;;;;;;;;;;;;;;;;;10458448;28;19983;-64
2022/10/10 18:16:37;;;;;;;;;;;;;;;;;;10457034;28;20307;-64
2022/10/10 18:21:39;;;;;;;;;;;;;;;;;;10454670;28;19951;-64
2022/10/10 18:26:41;;;;;;;;;;;;;;;;;;10457850;28;19925;-64
2022/10/10 18:31:44;;;;;;;;;;;;;;;;;;10455742;28;20330;-64
2022/10/10 18:36:46;;;;;;;;;;;;;;;;;;10454755;28;19932;-64
2022/10/10 18:41:48;;;;;;;;;;;;;;;;;;10456405;28;19925;-64
2022/10/10 18:46:50;;;;;;;;;;;;;;;;;;10457477;28;19929;-64
2022/10/10 18:51:52;;;;;;;;;;;;;;;;;;10457471;28;19925;-64
2022/10/10 18:56:54;;;;;;;;;;;;;;;;;;10456819;28;19925;-64
2022/10/10 19:01:56;;;;;;;;;;;;;;;;;;10454209;28;20342;-64
2022/10/10 19:07:00;;;;;;;;;;;;;;;;;;10456480;28;19925;-63
2022/10/10 19:12:03;;;;;;;;;;;;;;;;;;10463459;28;19979;-64
2022/10/10 19:17:05;;;;;;;;;;;;;;;;;;10463259;28;19925;-64
2022/10/10 19:22:07;;;;;;;;;;;;;;;;;;10461753;28;19928;-64
2022/10/10 19:27:09;;;;;;;;;;;;;;;;;;10464189;28;20439;-63
2022/10/10 19:32:11;;;;;;;;;;;;;;;;;;10464773;28;19929;-63
2022/10/10 19:37:13;;;;;;;;;;;;;;;;;;10462594;28;20384;-64
2022/10/10 19:42:15;;;;;;;;;;;;;;;;;;10445199;28;20004;-63
2022/10/10 19:47:17;;;;;;;;;;;;;;;;;;10464247;28;19971;-63
2022/10/10 19:52:19;;;;;;;;;;;;;;;;;;10462013;28;19925;-63
2022/10/10 19:57:21;;;;;;;;;;;;;;;;;;10463407;28;20019;-63
2022/10/10 20:02:23;;;;;;;;;;;;;;;;;;10461563;28;19925;-63
2022/10/10 20:07:25;;;;;;;;;;;;;;;;;;10463525;28;19951;-63
2022/10/10 20:12:27;;;;;;;;;;;;;;;;;;10462881;28;19924;-63
2022/10/10 20:17:29;;;;;;;;;;;;;;;;;;10460311;28;19929;-64
2022/10/10 20:22:33;;;;;;;;;;;;;;;;;;10459276;28;19929;-64
2022/10/10 20:27:35;;;;;;;;;;;;;;;;;;10459935;28;19948;-63
2022/10/10 20:32:37;;;;;;;;;;;;;;;;;;10461833;28;20325;-63
2022/10/10 20:37:39;;;;;;;;;;;;;;;;;;10460494;28;19925;-64
2022/10/10 20:42:42;;;;;;;;;;;;;;;;;;10459260;28;19932;-63
2022/10/10 20:47:44;;;;;;;;;;;;;;;;;;10461012;28;19929;-64
2022/10/10 20:52:46;;;;;;;;;;;;;;;;;;10461945;28;19983;-64
2022/10/10 20:57:48;;;;;;;;;;;;;;;;;;10458890;28;20460;-63
2022/10/10 21:02:51;;;;;;;;;;;;;;;;;;10460136;28;19952;-64
2022/10/10 21:07:53;;;;;;;;;;;;;;;;;;10461049;28;19925;-63
2022/10/10 21:12:55;;;;;;;;;;;;;;;;;;10459463;28;19924;-63
2022/10/10 21:17:58;;;;;;;;;;;;;;;;;;10473733;23;19955;-70
2022/10/10 21:23:04;;;;;;;;;;;;;;;;;;10458097;28;19925;-70
2022/10/10 21:28:06;;;;;;;;;;;;;;;;;;10460477;28;19986;-70
2022/10/10 21:33:08;;;;;;;;;;;;;;;;;;10460126;28;19974;-70
2022/10/10 21:38:10;;;;;;;;;;;;;;;;;;10456666;28;19925;-70
2022/10/10 21:43:12;;;;;;;;;;;;;;;;;;10457781;28;19978;-70
2022/10/10 21:48:14;;;;;;;;;;;;;;;;;;10459725;28;20073;-70
2022/10/10 21:53:16;;;;;;;;;;;;;;;;;;10458302;28;19924;-70
2022/10/10 21:58:18;;;;;;;;;;;;;;;;;;10457954;28;20461;-70
2022/10/10 22:03:20;;;;;;;;;;;;;;;;;;10457470;28;19924;-70
2022/10/10 22:08:22;;;;;;;;;;;;;;;;;;10458489;28;20260;-70
2022/10/10 22:13:24;;;;;;;;;;;;;;;;;;10457399;28;19979;-70
2022/10/10 22:18:26;;;;;;;;;;;;;;;;;;10455500;28;19924;-70
2022/10/10 22:23:29;;;;;;;;;;;;;;;;;;10457490;28;19929;-70
2022/10/10 22:28:31;;;;;;;;;;;;;;;;;;10458110;28;19929;-69
2022/10/10 22:33:33;;;;;;;;;;;;;;;;;;10456436;28;19932;-70
2022/10/10 22:38:35;;;;;;;;;;;;;;;;;;10455885;28;19971;-70
2022/10/10 22:43:37;;;;;;;;;;;;;;;;;;10456224;28;19924;-70
2022/10/10 22:48:39;;;;;;;;;;;;;;;;;;10439231;28;19924;-70
2022/10/10 22:53:41;;;;;;;;;;;;;;;;;;10456667;28;19950;-70
2022/10/10 22:58:43;;;;;;;;;;;;;;;;;;10453533;28;19925;-69
2022/10/10 23:03:45;;;;;;;;;;;;;;;;;;10455815;28;20342;-70
2022/10/10 23:08:47;;;;;;;;;;;;;;;;;;10456467;28;19925;-70
2022/10/10 23:13:49;;;;;;;;;;;;;;;;;;10455577;28;19928;-69
2022/10/10 23:18:52;;;;;;;;;;;;;;;;;;10452622;28;19925;-70
2022/10/10 23:23:54;;;;;;;;;;;;;;;;;;10449958;28;19928;-69
2022/10/10 23:28:56;;;;;;;;;;;;;;;;;;10455292;28;20338;-70
2022/10/10 23:33:58;;;;;;;;;;;;;;;;;;10448988;28;20350;-70
2022/10/10 23:39:00;;;;;;;;;;;;;;;;;;10444478;28;19924;-70
2022/10/10 23:44:02;;;;;;;;;;;;;;;;;;10455126;28;20380;-69
2022/10/10 23:49:04;;;;;;;;;;;;;;;;;;10456256;28;19925;-69
2022/10/10 23:54:06;;;;;;;;;;;;;;;;;;10454823;28;19929;-70
2022/10/10 23:59:08;;;;;;;;;;;;;;;;;;10460713;28;19925;-69
